createdAt,value
2023-05-23T00:01:07.342Z,13.68
2023-05-23T00:03:35.450Z,7.10
2023-05-23T00:06:04.610Z,6.20
2023-05-23T00:08:32.262Z,7.95
2023-05-23T00:10:59.635Z,6.70
2023-05-23T00:13:27.309Z,6.20
2023-05-23T00:15:54.682Z,6.40
2023-05-23T00:18:24.798Z,5.22
2023-05-23T00:20:52.301Z,9.07
2023-05-23T00:23:20.917Z,11.05
2023-05-23T00:25:54.318Z,9.90
2023-05-23T00:28:22.106Z,8.75
2023-05-23T00:30:49.718Z,6.63
2023-05-23T00:33:17.861Z,7.57
2023-05-23T00:35:45.202Z,6.45
2023-05-23T00:38:12.921Z,6.35
2023-05-23T00:40:40.248Z,7.45
2023-05-23T00:43:10.813Z,7.55
2023-05-23T00:45:38.319Z,8.30
2023-05-23T00:48:07.396Z,9.38
2023-05-23T00:50:36.127Z,7.93
2023-05-23T00:53:04.090Z,6.22
2023-05-23T00:55:31.743Z,9.70
2023-05-23T00:57:59.512Z,7.75
2023-05-23T01:00:27.229Z,8.88
2023-05-23T01:02:55.331Z,7.82
2023-05-23T01:05:24.872Z,5.13
2023-05-23T01:07:53.123Z,7.47
2023-05-23T01:10:22.222Z,8.98
2023-05-23T01:13:19.790Z,7.63
2023-05-23T01:15:47.113Z,7.60
2023-05-23T01:18:17.801Z,5.35
2023-05-23T01:20:48.674Z,7.53
2023-05-23T01:23:34.934Z,8.52
2023-05-23T01:26:14.452Z,8.07
2023-05-23T01:28:46.141Z,11.73
2023-05-23T01:31:14.243Z,5.70
2023-05-23T01:33:42.388Z,6.40
2023-05-23T01:36:09.772Z,8.43
2023-05-23T01:38:37.391Z,6.00
2023-05-23T01:41:04.741Z,5.95
2023-05-23T01:43:32.508Z,6.50
2023-05-23T01:46:00.973Z,7.65
2023-05-23T01:48:29.714Z,8.95
2023-05-23T01:50:57.229Z,11.75
2023-05-23T01:53:25.310Z,7.43
2023-05-23T01:55:53.043Z,8.38
2023-05-23T01:58:20.739Z,9.05
2023-05-23T02:00:48.155Z,6.50
2023-05-23T02:03:16.167Z,6.47
2023-05-23T02:05:43.942Z,7.00
2023-05-23T02:08:11.814Z,7.65
2023-05-23T02:10:39.183Z,6.18
2023-05-23T02:13:06.850Z,10.32
2023-05-23T02:15:34.175Z,8.98
2023-05-23T02:18:03.231Z,5.70
2023-05-23T02:20:30.748Z,6.28
2023-05-23T02:22:58.420Z,7.72
2023-05-23T02:25:25.777Z,5.88
2023-05-23T02:27:53.403Z,4.22
2023-05-23T02:30:20.779Z,6.18
2023-05-23T02:32:48.420Z,9.00
2023-05-23T02:35:15.875Z,6.03
2023-05-23T02:37:43.517Z,8.02
2023-05-23T02:40:11.367Z,7.28
2023-05-23T02:42:39.071Z,6.53
2023-05-23T02:45:06.664Z,6.45
2023-05-23T02:47:34.569Z,9.60
2023-05-23T02:50:01.976Z,8.10
2023-05-23T02:52:29.638Z,6.55
2023-05-23T02:54:56.958Z,8.70
2023-05-23T02:57:24.564Z,8.50
2023-05-23T02:59:51.900Z,6.82
2023-05-23T03:02:19.562Z,8.23
2023-05-23T03:04:47.062Z,5.78
2023-05-23T03:07:27.476Z,6.75
2023-05-23T03:09:55.923Z,6.53
2023-05-23T03:12:23.604Z,7.05
2023-05-23T03:14:51.056Z,5.13
2023-05-23T03:17:18.745Z,4.65
2023-05-23T03:19:46.235Z,8.15
2023-05-23T03:22:13.958Z,14.45
2023-05-23T03:24:41.385Z,9.80
2023-05-23T03:27:09.393Z,7.65
2023-05-23T03:29:36.777Z,6.57
2023-05-23T03:32:04.646Z,6.90
2023-05-23T03:34:33.108Z,4.93
2023-05-23T03:37:01.009Z,6.25
2023-05-23T03:39:28.397Z,6.05
2023-05-23T03:41:56.080Z,7.03
2023-05-23T03:44:23.640Z,11.52
2023-05-23T03:46:51.411Z,7.50
2023-05-23T03:49:18.816Z,9.13
2023-05-23T03:51:46.554Z,6.40
2023-05-23T03:54:13.987Z,7.70
2023-05-23T03:56:41.695Z,6.78
2023-05-23T03:59:09.408Z,7.32
2023-05-23T04:01:37.096Z,6.80
2023-05-23T04:04:05.010Z,7.45
2023-05-23T04:06:33.588Z,7.25
2023-05-23T04:09:01.349Z,9.32
2023-05-23T04:11:29.041Z,6.82
2023-05-23T04:13:56.700Z,6.63
2023-05-23T04:16:25.917Z,7.22
2023-05-23T04:18:54.415Z,8.10
2023-05-23T04:21:22.151Z,10.18
2023-05-23T04:23:49.489Z,9.00
2023-05-23T04:26:17.144Z,5.57
2023-05-23T04:28:46.351Z,7.75
2023-05-23T04:31:14.060Z,8.15
2023-05-23T04:33:41.524Z,5.80
2023-05-23T04:36:09.635Z,6.45
2023-05-23T04:38:38.550Z,6.10
2023-05-23T04:41:07.671Z,11.48
2023-05-23T04:43:35.189Z,9.77
2023-05-23T04:46:02.825Z,6.88
2023-05-23T04:48:31.472Z,9.00
2023-05-23T04:51:02.168Z,8.25
2023-05-23T04:53:29.592Z,7.82
2023-05-23T04:55:57.470Z,7.72
2023-05-23T04:58:25.101Z,7.28
2023-05-23T05:00:53.054Z,5.65
2023-05-23T05:03:20.612Z,6.57
2023-05-23T05:05:48.289Z,7.10
2023-05-23T05:08:15.652Z,8.07
2023-05-23T05:10:43.432Z,6.13
2023-05-23T05:13:10.918Z,8.27
2023-05-23T05:15:38.534Z,9.27
2023-05-23T05:18:05.926Z,7.20
2023-05-23T05:20:33.625Z,4.63
2023-05-23T05:23:01.253Z,6.18
2023-05-23T05:25:32.203Z,4.15
2023-05-23T05:28:03.209Z,9.50
2023-05-23T05:30:31.015Z,8.43
2023-05-23T05:32:58.416Z,5.05
2023-05-23T05:35:26.123Z,5.18
2023-05-23T05:37:53.450Z,5.60
2023-05-23T05:40:21.130Z,11.82
2023-05-23T05:42:48.523Z,8.23
2023-05-23T05:45:16.352Z,6.05
2023-05-23T05:47:43.801Z,5.20
2023-05-23T05:50:11.879Z,5.88
2023-05-23T05:52:40.052Z,8.00
2023-05-23T05:55:08.104Z,10.38
2023-05-23T05:57:35.545Z,8.80
2023-05-23T06:00:08.838Z,10.48
2023-05-23T06:05:04.878Z,6.07
2023-05-23T06:07:32.227Z,6.82
2023-05-23T06:09:59.852Z,6.63
2023-05-23T06:12:27.142Z,8.68
2023-05-23T06:14:54.763Z,9.40
2023-05-23T06:17:22.180Z,10.60
2023-05-23T06:19:49.862Z,7.32
2023-05-23T06:22:17.500Z,6.82
2023-05-23T06:24:45.407Z,6.32
2023-05-23T06:27:13.058Z,7.32
2023-05-23T06:29:40.840Z,8.00
2023-05-23T06:32:08.321Z,6.95
2023-05-23T06:34:36.088Z,7.18
2023-05-23T06:37:03.584Z,7.90
2023-05-23T06:39:31.306Z,6.05
2023-05-23T06:41:58.715Z,9.70
2023-05-23T06:44:26.343Z,5.88
2023-05-23T06:46:57.612Z,5.82
2023-05-23T06:49:25.854Z,7.72
2023-05-23T06:51:53.457Z,5.13
2023-05-23T06:54:21.317Z,7.85
2023-05-23T06:56:48.703Z,5.80
2023-05-23T06:59:16.357Z,6.35
2023-05-23T07:01:43.849Z,5.85
2023-05-23T07:04:12.281Z,6.43
2023-05-23T07:06:40.069Z,6.53
2023-05-23T07:09:07.771Z,4.95
2023-05-23T07:11:35.629Z,7.82
2023-05-23T07:14:03.811Z,5.18
2023-05-23T07:16:31.233Z,11.40
2023-05-23T07:18:58.949Z,6.25
2023-05-23T07:21:26.315Z,7.30
2023-05-23T07:23:53.928Z,7.97
2023-05-23T07:26:21.289Z,5.80
2023-05-23T07:28:48.977Z,5.60
2023-05-23T07:31:17.092Z,6.47
2023-05-23T07:33:44.867Z,9.32
2023-05-23T07:36:12.362Z,6.32
2023-05-23T07:38:40.029Z,5.97
2023-05-23T07:41:12.083Z,7.05
2023-05-23T07:43:40.774Z,7.50
2023-05-23T07:46:08.374Z,10.38
2023-05-23T07:48:36.196Z,7.38
2023-05-23T07:51:03.886Z,6.80
2023-05-23T07:53:31.679Z,7.65
2023-05-23T07:55:59.082Z,7.47
2023-05-23T07:58:26.932Z,5.20
2023-05-23T08:00:54.364Z,5.07
2023-05-23T08:03:22.017Z,4.57
2023-05-23T08:05:50.070Z,5.10
2023-05-23T08:08:17.735Z,7.68
2023-05-23T08:10:45.779Z,6.75
2023-05-23T08:13:13.561Z,4.32
2023-05-23T08:15:41.201Z,4.05
2023-05-23T08:18:08.961Z,8.63
2023-05-23T08:20:36.453Z,4.38
2023-05-23T08:23:04.063Z,4.68
2023-05-23T08:25:32.058Z,3.85
2023-05-23T08:28:00.174Z,4.95
2023-05-23T08:30:28.184Z,5.47
2023-05-23T08:32:56.363Z,4.30
2023-05-23T08:35:24.400Z,6.00
2023-05-23T08:37:52.405Z,7.53
2023-05-23T08:40:23.805Z,4.22
2023-05-23T08:42:51.646Z,4.15
2023-05-23T08:45:19.316Z,3.38
2023-05-23T08:47:47.747Z,4.88
2023-05-23T08:50:16.762Z,3.80
2023-05-23T08:52:51.088Z,4.40
2023-05-23T08:55:18.753Z,3.58
2023-05-23T08:57:46.788Z,3.65
2023-05-23T09:00:15.131Z,6.10
2023-05-23T09:02:46.130Z,3.95
2023-05-23T09:05:14.685Z,5.95
2023-05-23T09:07:42.535Z,9.55
2023-05-23T09:10:11.179Z,3.28
2023-05-23T09:12:39.088Z,4.40
2023-05-23T09:15:07.982Z,11.27
2023-05-23T09:17:36.365Z,7.13
2023-05-23T09:20:05.698Z,7.55
2023-05-23T09:22:33.337Z,10.43
2023-05-23T09:25:01.096Z,5.88
2023-05-23T09:27:28.844Z,4.40
2023-05-23T09:29:56.832Z,8.55
2023-05-23T09:32:24.566Z,6.82
2023-05-23T09:34:59.171Z,4.93
2023-05-23T09:37:31.228Z,4.10
2023-05-23T09:39:59.861Z,8.30
2023-05-23T09:42:32.993Z,5.60
2023-05-23T09:45:03.814Z,9.20
2023-05-23T09:47:32.402Z,6.37
2023-05-23T09:49:59.876Z,5.18
2023-05-23T09:52:27.532Z,5.82
2023-05-23T09:54:55.762Z,3.63
2023-05-23T09:57:24.152Z,7.32
2023-05-23T09:59:54.873Z,4.78
2023-05-23T10:02:53.491Z,6.43
2023-05-23T10:05:32.038Z,11.75
2023-05-23T10:08:04.511Z,3.78
2023-05-23T10:10:33.806Z,5.35
2023-05-23T10:13:05.032Z,4.82
2023-05-23T10:15:36.336Z,5.68
2023-05-23T10:18:09.751Z,5.53
2023-05-23T10:20:37.311Z,5.03
2023-05-23T10:23:05.456Z,5.35
2023-05-23T10:25:32.961Z,5.18
2023-05-23T10:28:03.922Z,4.63
2023-05-23T10:30:31.999Z,6.75
2023-05-23T10:33:00.092Z,4.40
2023-05-23T10:35:41.727Z,4.22
2023-05-23T10:38:28.049Z,5.50
2023-05-23T10:40:55.456Z,3.90
2023-05-23T10:43:36.997Z,3.97
2023-05-23T10:46:04.494Z,5.85
2023-05-23T10:48:33.086Z,4.07
2023-05-23T10:51:07.775Z,3.00
2023-05-23T10:53:36.673Z,5.15
2023-05-23T10:56:07.792Z,3.67
2023-05-23T10:58:36.857Z,4.68
2023-05-23T11:01:09.190Z,5.95
2023-05-23T11:03:52.020Z,5.65
2023-05-23T11:06:38.481Z,4.68
2023-05-23T11:09:19.184Z,7.80
2023-05-23T11:11:49.712Z,4.88
2023-05-23T11:14:17.592Z,7.25
2023-05-23T11:16:46.602Z,4.03
2023-05-23T11:19:25.900Z,3.88
2023-05-23T11:21:57.025Z,5.55
2023-05-23T11:24:24.797Z,6.35
2023-05-23T11:27:05.334Z,3.88
2023-05-23T11:29:33.162Z,5.53
2023-05-23T11:32:00.704Z,3.03
2023-05-23T11:34:28.451Z,6.20
2023-05-23T11:36:56.390Z,6.82
2023-05-23T11:39:24.472Z,3.53
2023-05-23T11:42:12.149Z,3.30
2023-05-23T11:44:39.860Z,3.83
2023-05-23T11:47:08.423Z,6.10
2023-05-23T11:49:39.719Z,4.47
2023-05-23T11:52:07.392Z,6.43
2023-05-23T11:54:35.129Z,4.93
2023-05-23T11:57:03.676Z,6.70
2023-05-23T11:59:31.816Z,3.13
2023-05-23T12:02:00.531Z,3.00
2023-05-23T12:04:28.874Z,3.60
2023-05-23T12:06:56.531Z,4.63
2023-05-23T12:09:24.291Z,6.40
2023-05-23T12:11:51.891Z,4.55
2023-05-23T12:14:19.608Z,4.50
2023-05-23T12:16:47.686Z,4.35
2023-05-23T12:19:17.281Z,4.00
2023-05-23T12:21:48.538Z,6.00
2023-05-23T12:24:20.210Z,10.15
2023-05-23T12:26:59.450Z,7.22
2023-05-23T12:29:32.829Z,6.03
2023-05-23T12:32:02.745Z,3.75
2023-05-23T12:34:30.536Z,4.20
2023-05-23T12:37:10.447Z,3.40
2023-05-23T12:39:45.881Z,5.75
2023-05-23T12:42:13.464Z,4.63
2023-05-23T12:44:46.283Z,6.55
2023-05-23T12:47:13.784Z,4.57
2023-05-23T12:49:41.492Z,3.20
2023-05-23T12:52:08.908Z,4.05
2023-05-23T12:54:36.547Z,3.30
2023-05-23T12:57:03.940Z,4.45
2023-05-23T12:59:31.547Z,5.20
2023-05-23T13:02:00.492Z,13.60
2023-05-23T13:04:30.930Z,9.73
2023-05-23T13:06:59.455Z,4.88
2023-05-23T13:09:27.212Z,4.22
2023-05-23T13:11:55.295Z,6.18
2023-05-23T13:14:23.039Z,5.72
2023-05-23T13:16:50.479Z,3.42
2023-05-23T13:19:18.354Z,7.57
2023-05-23T13:21:47.914Z,7.15
2023-05-23T13:24:17.788Z,4.82
2023-05-23T13:26:45.095Z,5.90
2023-05-23T13:29:13.008Z,4.90
2023-05-23T13:31:40.422Z,8.73
2023-05-23T13:34:08.090Z,5.07
2023-05-23T13:36:36.038Z,4.45
2023-05-23T13:39:06.761Z,3.55
2023-05-23T13:41:34.125Z,4.45
2023-05-23T13:44:01.880Z,4.65
2023-05-23T13:46:29.327Z,3.97
2023-05-23T13:48:57.059Z,3.72
2023-05-23T13:51:24.488Z,6.80
2023-05-23T13:53:52.511Z,5.18
2023-05-23T13:56:19.936Z,4.32
2023-05-23T13:58:47.649Z,7.40
2023-05-23T14:01:15.055Z,8.75
2023-05-23T14:03:42.745Z,6.38
2023-05-23T14:06:10.061Z,7.75
2023-05-23T14:08:37.776Z,5.00
2023-05-23T14:11:05.170Z,5.00
2023-05-23T14:13:33.721Z,5.40
2023-05-23T14:16:01.245Z,5.35
2023-05-23T14:18:28.888Z,4.75
2023-05-23T14:20:56.328Z,5.55
2023-05-23T14:23:24.209Z,4.07
2023-05-23T14:25:52.037Z,5.95
2023-05-23T14:28:19.888Z,6.22
2023-05-23T14:30:47.326Z,7.55
2023-05-23T14:33:15.407Z,4.63
2023-05-23T14:35:43.383Z,4.07
2023-05-23T14:38:11.319Z,3.97
2023-05-23T14:40:38.689Z,7.13
2023-05-23T14:43:06.305Z,5.32
2023-05-23T14:45:33.751Z,6.28
2023-05-23T14:48:01.599Z,4.40
2023-05-23T14:50:29.057Z,6.22
2023-05-23T14:52:56.879Z,9.10
2023-05-23T14:55:24.242Z,5.10
2023-05-23T14:57:52.287Z,4.50
2023-05-23T15:00:19.958Z,4.38
2023-05-23T15:02:47.719Z,8.55
2023-05-23T15:05:15.582Z,6.93
2023-05-23T15:07:44.356Z,5.25
2023-05-23T15:10:11.826Z,8.05
2023-05-23T15:12:39.524Z,5.30
2023-05-23T15:15:07.132Z,4.35
2023-05-23T15:17:35.028Z,8.98
2023-05-23T15:20:05.140Z,5.03
2023-05-23T15:22:39.517Z,5.88
2023-05-23T15:25:08.676Z,5.55
2023-05-23T15:27:36.556Z,5.90
2023-05-23T15:30:04.464Z,9.13
2023-05-23T15:32:32.198Z,3.72
2023-05-23T15:34:59.687Z,10.48
2023-05-23T15:37:27.382Z,3.92
2023-05-23T15:39:54.807Z,4.25
2023-05-23T15:42:22.430Z,4.78
2023-05-23T15:44:49.807Z,4.22
2023-05-23T15:47:18.715Z,7.97
2023-05-23T15:49:46.099Z,7.40
2023-05-23T15:52:13.751Z,8.15
2023-05-23T15:54:41.119Z,14.55
2023-05-23T15:57:08.892Z,11.80
2023-05-23T15:59:37.521Z,5.40
2023-05-23T16:02:06.348Z,6.95
2023-05-23T16:04:35.974Z,5.60
2023-05-23T16:07:04.485Z,8.25
2023-05-23T16:09:31.988Z,10.30
2023-05-23T16:11:59.657Z,6.70
2023-05-23T16:14:27.180Z,10.35
2023-05-23T16:16:54.990Z,21.58
2023-05-23T16:19:22.527Z,26.58
2023-05-23T16:21:50.408Z,22.05
2023-05-23T16:24:19.350Z,96.53
2023-05-23T16:26:47.188Z,52.47
2023-05-23T16:29:14.650Z,51.47
2023-05-23T16:31:42.510Z,73.20
2023-05-23T16:34:09.964Z,94.10
2023-05-23T16:36:38.270Z,56.20
2023-05-23T16:39:05.973Z,30.75
2023-05-23T16:41:33.801Z,30.17
2023-05-23T16:44:01.305Z,23.80
2023-05-23T16:46:29.396Z,23.15
2023-05-23T16:48:56.888Z,22.38
2023-05-23T16:51:24.679Z,10.70
2023-05-23T16:53:52.182Z,10.77
2023-05-23T16:56:19.944Z,12.70
2023-05-23T16:58:47.567Z,7.00
2023-05-23T17:01:16.769Z,10.48
2023-05-23T17:03:44.388Z,9.38
2023-05-23T17:06:12.404Z,7.68
2023-05-23T17:08:39.800Z,55.63
2023-05-23T17:11:07.727Z,7.47
2023-05-23T17:13:35.738Z,8.68
2023-05-23T17:16:03.975Z,8.80
2023-05-23T17:18:32.137Z,6.00
2023-05-23T17:21:00.015Z,6.28
2023-05-23T17:23:27.924Z,6.25
2023-05-23T17:25:55.768Z,6.70
2023-05-23T17:28:23.540Z,9.45
2023-05-23T17:30:54.031Z,11.35
2023-05-23T17:33:21.863Z,10.88
2023-05-23T17:35:49.605Z,10.68
2023-05-23T17:38:17.261Z,5.93
2023-05-23T17:40:45.474Z,9.85
2023-05-23T17:43:13.368Z,8.90
2023-05-23T17:45:41.963Z,7.90
2023-05-23T17:48:09.780Z,10.13
2023-05-23T17:50:37.997Z,8.68
2023-05-23T17:53:05.615Z,19.90
2023-05-23T17:55:33.482Z,53.85
2023-05-23T17:58:01.138Z,102.57
2023-05-23T18:00:29.850Z,108.68
2023-05-23T18:02:57.969Z,67.57
2023-05-23T18:05:25.732Z,94.97
2023-05-23T18:07:53.350Z,45.63
2023-05-23T18:10:21.291Z,40.53
2023-05-23T18:12:50.393Z,25.55
2023-05-23T18:15:18.278Z,13.18
2023-05-23T18:17:45.924Z,12.75
2023-05-23T18:20:14.502Z,8.60
2023-05-23T18:22:42.134Z,13.27
2023-05-23T18:25:09.886Z,30.20
2023-05-23T18:27:37.408Z,17.98
2023-05-23T18:30:05.389Z,8.43
2023-05-23T18:32:33.028Z,10.30
2023-05-23T18:35:01.111Z,7.80
2023-05-23T18:37:28.495Z,8.70
2023-05-23T18:39:58.131Z,14.23
2023-05-23T18:42:25.777Z,8.90
2023-05-23T18:44:53.744Z,14.73
2023-05-23T18:47:21.459Z,8.55
2023-05-23T18:49:49.857Z,8.38
2023-05-23T18:52:17.523Z,9.00
2023-05-23T18:54:45.530Z,5.70
2023-05-23T18:57:12.997Z,8.30
2023-05-23T18:59:40.899Z,11.38
2023-05-23T19:02:08.533Z,11.45
2023-05-23T19:04:36.655Z,12.13
2023-05-23T19:07:04.779Z,11.88
2023-05-23T19:09:32.815Z,9.48
2023-05-23T19:12:00.609Z,12.43
2023-05-23T19:14:29.283Z,9.93
2023-05-23T19:16:58.297Z,10.15
2023-05-23T19:19:28.546Z,16.63
2023-05-23T19:21:58.105Z,15.27
2023-05-23T19:24:27.431Z,25.30
2023-05-23T19:26:56.264Z,21.67
2023-05-23T19:29:25.707Z,19.95
2023-05-23T19:31:53.747Z,11.07
2023-05-23T19:34:22.109Z,11.05
2023-05-23T19:36:50.031Z,12.50
2023-05-23T19:39:18.051Z,18.27
2023-05-23T19:41:45.839Z,18.70
2023-05-23T19:44:17.328Z,14.30
2023-05-23T19:46:44.880Z,8.27
2023-05-23T19:49:15.089Z,10.55
2023-05-23T19:51:42.664Z,7.70
2023-05-23T19:54:11.123Z,10.63
2023-05-23T19:56:40.945Z,9.13
2023-05-23T19:59:08.777Z,12.13
2023-05-23T20:01:36.646Z,21.90
2023-05-23T20:04:05.488Z,15.98
2023-05-23T20:06:33.988Z,23.13
2023-05-23T20:09:02.005Z,14.90
2023-05-23T20:11:29.755Z,17.75
2023-05-23T20:13:57.446Z,25.60
2023-05-23T20:16:25.112Z,15.05
2023-05-23T20:18:53.027Z,13.25
2023-05-23T20:21:20.540Z,17.08
2023-05-23T20:23:49.148Z,14.15
2023-05-23T20:26:16.619Z,19.67
2023-05-23T20:28:44.449Z,17.58
2023-05-23T20:31:11.917Z,16.95
2023-05-23T20:33:40.580Z,13.52
2023-05-23T20:36:08.869Z,14.45
2023-05-23T20:38:36.661Z,13.45
2023-05-23T20:41:07.725Z,16.73
2023-05-23T20:43:37.298Z,16.55
2023-05-23T20:46:05.711Z,10.50
2023-05-23T20:48:36.502Z,9.80
2023-05-23T20:51:05.890Z,16.23
2023-05-23T20:53:34.309Z,18.48
2023-05-23T20:56:01.970Z,16.50
2023-05-23T20:58:29.634Z,13.68
2023-05-23T21:00:57.690Z,13.65
2023-05-23T21:03:25.605Z,18.83
2023-05-23T21:05:53.089Z,17.95
2023-05-23T21:08:21.773Z,15.90
2023-05-23T21:10:52.268Z,15.13
2023-05-23T21:13:21.128Z,16.08
2023-05-23T21:15:48.509Z,17.55
2023-05-23T21:18:16.516Z,20.05
2023-05-23T21:20:44.102Z,19.15
2023-05-23T21:23:11.910Z,13.32
2023-05-23T21:25:39.361Z,14.25
2023-05-23T21:28:07.049Z,13.25
2023-05-23T21:30:34.773Z,11.68
2023-05-23T21:33:02.473Z,21.00
2023-05-23T21:35:29.928Z,14.38
2023-05-23T21:37:57.933Z,14.32
2023-05-23T21:40:26.743Z,28.60
2023-05-23T21:42:54.521Z,15.55
2023-05-23T21:45:21.937Z,11.88
2023-05-23T21:47:49.731Z,13.95
2023-05-23T21:50:17.076Z,13.80
2023-05-23T21:52:44.695Z,9.40
2023-05-23T21:55:12.057Z,12.63
2023-05-23T21:57:39.680Z,10.30
2023-05-23T22:00:12.196Z,9.52
2023-05-23T22:02:40.187Z,7.22
2023-05-23T22:05:07.786Z,6.43
2023-05-23T22:07:35.460Z,8.55
2023-05-23T22:10:02.810Z,13.23
2023-05-23T22:12:30.803Z,10.52
2023-05-23T22:14:58.238Z,9.77
2023-05-23T22:17:26.446Z,8.70
2023-05-23T22:19:55.761Z,7.90
2023-05-23T22:22:23.533Z,6.60
2023-05-23T22:24:51.755Z,7.05
2023-05-23T22:27:19.476Z,13.82
2023-05-23T22:29:46.898Z,8.65
2023-05-23T22:32:14.465Z,9.48
2023-05-23T22:34:41.842Z,9.50
2023-05-23T22:37:09.595Z,9.93
2023-05-23T22:39:37.029Z,6.95
2023-05-23T22:42:04.742Z,10.45
2023-05-23T22:44:32.207Z,8.18
2023-05-23T22:47:00.078Z,8.35
2023-05-23T22:49:30.067Z,10.82
2023-05-23T22:51:57.987Z,6.82
2023-05-23T22:54:24.983Z,12.43
2023-05-23T22:56:52.977Z,11.35
2023-05-23T22:59:20.475Z,12.80
2023-05-23T23:01:48.189Z,11.73
2023-05-23T23:04:15.599Z,8.07
2023-05-23T23:06:44.378Z,10.90
2023-05-23T23:09:11.770Z,8.05
2023-05-23T23:11:39.419Z,8.70
2023-05-23T23:14:06.772Z,7.50
2023-05-23T23:16:34.571Z,10.13
2023-05-23T23:19:02.573Z,10.18
2023-05-23T23:21:30.747Z,10.18
2023-05-23T23:23:58.486Z,9.57
2023-05-23T23:26:26.213Z,9.38
2023-05-23T23:28:53.528Z,9.13
2023-05-23T23:31:21.577Z,10.38
2023-05-23T23:33:49.042Z,7.60
2023-05-23T23:36:16.710Z,12.13
2023-05-23T23:38:44.104Z,11.65
2023-05-23T23:41:11.736Z,7.07
2023-05-23T23:43:39.071Z,8.27
2023-05-23T23:46:06.870Z,9.38
2023-05-23T23:48:34.261Z,7.32
2023-05-23T23:51:01.864Z,10.23
2023-05-23T23:53:30.119Z,11.63
2023-05-23T23:55:57.728Z,8.98
2023-05-23T23:58:25.077Z,8.00
